Southern Tiare — E5U2082 — position and weather

sailwx.info

Track history (hours):
 
Tides and Currents Weather Stations Pressure Air Temp Water Temp Dewpoint Dewpoint Depression Visibility Wind Speed Wind Dir Waves Ship Positions

Southern Tiare

Last reported at 2015-Jul-11 15:03 UTC. Time now 2015-Aug-01 18:10 UTC.
Position S 36°13' E 174°56'.
Warning: this ship's position is 21 days out of date.

Length 67 m; draft 3.3 m.

Type: Cargo ship. MMSI: 518132000.

Date/timePositionNaut miles runAvg speedWind from/ knotsBaromVisibWave heightAir tempDewpointWater temp
2015-Jul-11 15:03S 36°13' E 174°56'510.5
2015-Jul-11 14:33S 36°19' E 174°57'1010.2
2015-Jul-11 13:33S 36°29' E 174°57'1010.0
2015-Jul-11 12:33S 36°39' E 174°56'1010.0
2015-Jul-11 11:34S 36°47' E 174°48'4 4.0
2015-Jul-11 10:31S 36°51' E 174°47'0 0.0
2015-Jul-11 09:31S 36°51' E 174°47'0 0.0
2015-Jul-11 08:31S 36°51' E 174°47'0 0.0
2015-Jul-11 07:31S 36°51' E 174°47'0 0.0
2015-Jul-11 06:31S 36°51' E 174°47'0 0.0
2015-Jul-11 05:31S 36°51' E 174°47'0 0.0
2015-Jul-11 04:31S 36°51' E 174°47'0 0.0
2015-Jul-11 03:31S 36°51' E 174°47'0 0.0
2015-Jul-11 02:31S 36°51' E 174°47'0 0.0
2015-Jul-11 01:25S 36°51' E 174°47'0 0.4
2015-Jul-11 00:33S 36°50' E 174°47'0 0.3
2015-Jul-10 23:31S 36°51' E 174°47'0 0.0
2015-Jul-10 22:31S 36°51' E 174°47'0 0.0
2015-Jul-10 21:31S 36°51' E 174°47'0 0.0
2015-Jul-10 20:31S 36°51' E 174°47'0 0.0
2015-Jul-10 19:28S 36°51' E 174°47'0 0.0
2015-Jul-10 18:28S 36°51' E 174°47'0 0.0
2015-Jul-10 17:32S 36°51' E 174°47'0 0.0
2015-Jul-10 16:31S 36°51' E 174°47'0 0.0
2015-Jul-10 15:31S 36°51' E 174°47'0 0.0
2015-Jul-10 14:28S 36°51' E 174°47'0 0.0
2015-Jul-10 13:28S 36°51' E 174°47'0 0.0
2015-Jul-10 12:28S 36°51' E 174°47'0 0.0
2015-Jul-10 11:28S 36°51' E 174°47'0 0.0
2015-Jul-10 09:22S 36°51' E 174°47'0 0.0
2015-Jul-10 07:13S 36°51' E 174°47'0 0.0
2015-Jul-10 05:31S 36°51' E 174°47'0 0.0
2015-Jul-10 02:28S 36°51' E 174°47'0 0.0
2015-Jul-09 23:07S 36°51' E 174°47'0 0.0
2015-Jul-09 21:07S 36°51' E 174°47'0 0.0
2015-Jul-09 18:25S 36°51' E 174°47'0 0.0
2015-Jul-09 17:31S 36°51' E 174°47'0 0.0
2015-Jul-09 16:31S 36°51' E 174°47'0 0.0
2015-Jul-09 15:31S 36°51' E 174°47'0 0.0
2015-Jul-09 14:25S 36°51' E 174°47'0 0.0
2015-Jul-09 13:25S 36°51' E 174°47'0 0.0
2015-Jul-09 12:31S 36°51' E 174°47'0 0.0
2015-Jul-09 10:07S 36°51' E 174°47'0 0.0
2015-Jul-09 08:31S 36°51' E 174°47'0 0.0
2015-Jul-09 07:19S 36°51' E 174°47'0 0.0
2015-Jul-09 06:31S 36°51' E 174°47'0 0.0
2015-Jul-09 05:25S 36°51' E 174°47'0 0.0
2015-Jul-09 04:07S 36°51' E 174°47'0 0.0
2015-Jul-09 03:31S 36°51' E 174°47'0 0.0
2015-Jul-09 02:19S 36°51' E 174°47'0 0.0
2015-Jul-09 01:31S 36°51' E 174°47'0 0.0
2015-Jul-09 00:31S 36°51' E 174°47'0 0.0
2015-Jul-08 23:31S 36°51' E 174°47'0 0.0
2015-Jul-08 22:31S 36°51' E 174°47'0 0.0
2015-Jul-08 21:31S 36°51' E 174°47'0 0.0
2015-Jul-08 20:19S 36°51' E 174°47'0 0.0
2015-Jul-08 19:19S 36°51' E 174°47'0 0.0
2015-Jul-08 18:31S 36°51' E 174°47'0 0.0
2015-Jul-08 17:19S 36°51' E 174°47'0 0.0
2015-Jul-08 16:13S 36°51' E 174°47'0 0.0
2015-Jul-08 15:31S 36°51' E 174°47'0 0.0
2015-Jul-08 14:31S 36°51' E 174°47'0 0.0
2015-Jul-08 13:31S 36°51' E 174°47'0 0.0
2015-Jul-08 12:31S 36°51' E 174°47'0 0.0
2015-Jul-08 11:31S 36°51' E 174°47'0 0.0
2015-Jul-08 10:25S 36°51' E 174°47'0 0.0
2015-Jul-08 09:31S 36°51' E 174°47'0 0.0
2015-Jul-08 08:31S 36°51' E 174°47'0 0.0
2015-Jul-08 07:31S 36°51' E 174°47'2 2.6
2015-Jul-08 06:33S 36°50' E 174°50'7 6.6
2015-Jul-08 05:34S 36°43' E 174°52'10 9.8
2015-Jul-08 04:33S 36°37' E 175°01'  
Track history (hours):
 
Tides and Currents Weather Stations Pressure Air Temp Water Temp Dewpoint Dewpoint Depression Visibility Wind Speed Wind Dir Waves Ship Positions

Southern Tiare

Last reported at 2015-Jul-11 15:03 UTC. Time now 2015-Aug-01 18:10 UTC.
Position S 36°13' E 174°56'.
Warning: this ship's position is 21 days out of date.

Length 67 m; draft 3.3 m.

Type: Cargo ship. MMSI: 518132000.

Date/timePositionNaut miles runAvg speedWind from/ knotsBaromVisibWave heightAir tempDewpointWater temp
2015-Jul-11 15:03S 36°13' E 174°56'510.5
2015-Jul-11 14:33S 36°19' E 174°57'1010.2
2015-Jul-11 13:33S 36°29' E 174°57'1010.0
2015-Jul-11 12:33S 36°39' E 174°56'1010.0
2015-Jul-11 11:34S 36°47' E 174°48'4 4.0
2015-Jul-11 10:31S 36°51' E 174°47'0 0.0
2015-Jul-11 09:31S 36°51' E 174°47'0 0.0
2015-Jul-11 08:31S 36°51' E 174°47'0 0.0
2015-Jul-11 07:31S 36°51' E 174°47'0 0.0
2015-Jul-11 06:31S 36°51' E 174°47'0 0.0
2015-Jul-11 05:31S 36°51' E 174°47'0 0.0
2015-Jul-11 04:31S 36°51' E 174°47'0 0.0
2015-Jul-11 03:31S 36°51' E 174°47'0 0.0
2015-Jul-11 02:31S 36°51' E 174°47'0 0.0
2015-Jul-11 01:25S 36°51' E 174°47'0 0.4
2015-Jul-11 00:33S 36°50' E 174°47'0 0.3
2015-Jul-10 23:31S 36°51' E 174°47'0 0.0
2015-Jul-10 22:31S 36°51' E 174°47'0 0.0
2015-Jul-10 21:31S 36°51' E 174°47'0 0.0
2015-Jul-10 20:31S 36°51' E 174°47'0 0.0
2015-Jul-10 19:28S 36°51' E 174°47'0 0.0
2015-Jul-10 18:28S 36°51' E 174°47'0 0.0
2015-Jul-10 17:32S 36°51' E 174°47'0 0.0
2015-Jul-10 16:31S 36°51' E 174°47'0 0.0
2015-Jul-10 15:31S 36°51' E 174°47'0 0.0
2015-Jul-10 14:28S 36°51' E 174°47'0 0.0
2015-Jul-10 13:28S 36°51' E 174°47'0 0.0
2015-Jul-10 12:28S 36°51' E 174°47'0 0.0
2015-Jul-10 11:28S 36°51' E 174°47'0 0.0
2015-Jul-10 09:22S 36°51' E 174°47'0 0.0
2015-Jul-10 07:13S 36°51' E 174°47'0 0.0
2015-Jul-10 05:31S 36°51' E 174°47'0 0.0
2015-Jul-10 02:28S 36°51' E 174°47'0 0.0
2015-Jul-09 23:07S 36°51' E 174°47'0 0.0
2015-Jul-09 21:07S 36°51' E 174°47'0 0.0
2015-Jul-09 18:25S 36°51' E 174°47'0 0.0
2015-Jul-09 17:31S 36°51' E 174°47'0 0.0
2015-Jul-09 16:31S 36°51' E 174°47'0 0.0
2015-Jul-09 15:31S 36°51' E 174°47'0 0.0
2015-Jul-09 14:25S 36°51' E 174°47'0 0.0
2015-Jul-09 13:25S 36°51' E 174°47'0 0.0
2015-Jul-09 12:31S 36°51' E 174°47'0 0.0
2015-Jul-09 10:07S 36°51' E 174°47'0 0.0
2015-Jul-09 08:31S 36°51' E 174°47'0 0.0
2015-Jul-09 07:19S 36°51' E 174°47'0 0.0
2015-Jul-09 06:31S 36°51' E 174°47'0 0.0
2015-Jul-09 05:25S 36°51' E 174°47'0 0.0
2015-Jul-09 04:07S 36°51' E 174°47'0 0.0
2015-Jul-09 03:31S 36°51' E 174°47'0 0.0
2015-Jul-09 02:19S 36°51' E 174°47'0 0.0
2015-Jul-09 01:31S 36°51' E 174°47'0 0.0
2015-Jul-09 00:31S 36°51' E 174°47'0 0.0
2015-Jul-08 23:31S 36°51' E 174°47'0 0.0
2015-Jul-08 22:31S 36°51' E 174°47'0 0.0
2015-Jul-08 21:31S 36°51' E 174°47'0 0.0
2015-Jul-08 20:19S 36°51' E 174°47'0 0.0
2015-Jul-08 19:19S 36°51' E 174°47'0 0.0
2015-Jul-08 18:31S 36°51' E 174°47'0 0.0
2015-Jul-08 17:19S 36°51' E 174°47'0 0.0
2015-Jul-08 16:13S 36°51' E 174°47'0 0.0
2015-Jul-08 15:31S 36°51' E 174°47'0 0.0
2015-Jul-08 14:31S 36°51' E 174°47'0 0.0
2015-Jul-08 13:31S 36°51' E 174°47'0 0.0
2015-Jul-08 12:31S 36°51' E 174°47'0 0.0
2015-Jul-08 11:31S 36°51' E 174°47'0 0.0
2015-Jul-08 10:25S 36°51' E 174°47'0 0.0
2015-Jul-08 09:31S 36°51' E 174°47'0 0.0
2015-Jul-08 08:31S 36°51' E 174°47'0 0.0
2015-Jul-08 07:31S 36°51' E 174°47'2 2.6
2015-Jul-08 06:33S 36°50' E 174°50'7 6.6
2015-Jul-08 05:34S 36°43' E 174°52'10 9.8
2015-Jul-08 04:33S 36°37' E 175°01'  

Dump ship's entire track history